createdAt,value
2023-01-18T00:04:42.967Z,14.45
2023-01-18T00:09:41.834Z,14.47
2023-01-18T00:14:43.565Z,14.42
2023-01-18T00:19:44.895Z,14.54
2023-01-18T00:24:56.828Z,14.52
2023-01-18T00:30:01.427Z,14.40
2023-01-18T00:35:07.373Z,14.48
2023-01-18T00:40:07.377Z,14.39
2023-01-18T00:45:10.171Z,14.54
2023-01-18T00:50:30.552Z,14.56
2023-01-18T00:55:29.561Z,14.53
2023-01-18T01:00:35.986Z,14.50
2023-01-18T01:05:52.724Z,14.54
2023-01-18T01:10:58.240Z,14.57
2023-01-18T01:16:30.183Z,14.58
2023-01-18T01:21:47.534Z,14.65
2023-01-18T01:26:46.430Z,14.60
2023-01-18T01:32:02.628Z,14.59
2023-01-18T01:37:06.684Z,14.64
2023-01-18T01:42:06.500Z,14.66
2023-01-18T01:47:10.739Z,14.67
2023-01-18T01:52:27.840Z,14.69
2023-01-18T01:57:32.433Z,14.75
2023-01-18T02:02:36.012Z,14.76
2023-01-18T02:07:37.598Z,14.76
2023-01-18T02:12:43.478Z,14.77
2023-01-18T02:18:01.129Z,14.78
2023-01-18T02:23:27.964Z,14.89
2023-01-18T02:28:36.593Z,14.91
2023-01-18T02:33:44.045Z,14.93
2023-01-18T02:38:49.286Z,14.98
2023-01-18T02:44:16.609Z,14.97
2023-01-18T02:49:23.249Z,15.09
2023-01-18T02:54:24.402Z,15.08
2023-01-18T03:00:31.175Z,15.13
2023-01-18T03:05:46.530Z,15.19
2023-01-18T03:10:57.931Z,15.14
2023-01-18T03:16:08.469Z,15.18
2023-01-18T03:21:17.469Z,15.25
2023-01-18T03:26:24.467Z,15.25
2023-01-18T03:31:56.400Z,15.25
2023-01-18T03:37:01.104Z,15.19
2023-01-18T03:42:14.927Z,15.22
2023-01-18T03:47:16.039Z,15.27
2023-01-18T03:52:21.270Z,15.31
2023-01-18T03:57:28.079Z,15.28
2023-01-18T04:02:29.373Z,15.30
2023-01-18T04:07:28.129Z,15.20
2023-01-18T04:12:27.339Z,15.20
2023-01-18T04:17:29.742Z,15.18
2023-01-18T04:22:32.440Z,15.07
2023-01-18T04:27:49.318Z,15.05
2023-01-18T04:32:50.209Z,14.96
2023-01-18T04:37:53.019Z,14.88
2023-01-18T04:42:57.682Z,14.84
2023-01-18T04:47:58.511Z,14.85
2023-01-18T04:52:57.589Z,14.76
2023-01-18T04:58:03.398Z,14.68
2023-01-18T05:03:12.748Z,14.67
2023-01-18T05:08:11.564Z,14.71
2023-01-18T05:13:12.938Z,14.69
2023-01-18T05:18:27.156Z,14.62
2023-01-18T05:23:26.004Z,14.58
2023-01-18T05:28:30.083Z,14.61
2023-01-18T05:33:32.787Z,14.57
2023-01-18T05:38:35.472Z,14.58
2023-01-18T05:43:36.369Z,14.59
2023-01-18T05:48:39.981Z,14.66
2023-01-18T05:53:42.544Z,14.74
2023-01-18T05:58:44.328Z,14.77
2023-01-18T06:03:48.169Z,14.77
2023-01-18T06:08:55.591Z,14.78
2023-01-18T06:13:59.810Z,14.91
2023-01-18T06:19:00.114Z,14.95
2023-01-18T06:24:01.325Z,14.91
2023-01-18T06:29:00.641Z,14.98
2023-01-18T06:34:11.128Z,15.01
2023-01-18T06:39:21.576Z,14.98
2023-01-18T06:44:20.492Z,14.98
2023-01-18T06:49:21.196Z,14.97
2023-01-18T06:54:25.231Z,14.98
2023-01-18T06:59:24.190Z,15.10
2023-01-18T07:04:25.750Z,15.10
2023-01-18T07:09:24.721Z,15.22
2023-01-18T07:14:23.728Z,15.34
2023-01-18T07:19:22.941Z,15.63
2023-01-18T07:24:25.668Z,15.63
2023-01-18T07:29:24.694Z,15.76
2023-01-18T07:34:23.880Z,15.79
2023-01-18T07:39:26.195Z,15.71
2023-01-18T07:44:28.060Z,15.82
2023-01-18T07:49:29.197Z,15.80
2023-01-18T07:54:33.395Z,16.04
2023-01-18T07:59:33.637Z,16.10
2023-01-18T08:04:34.425Z,16.25
2023-01-18T08:09:35.169Z,16.35
2023-01-18T08:14:48.134Z,16.46
2023-01-18T08:19:49.633Z,16.63
2023-01-18T08:25:02.768Z,16.77
2023-01-18T08:30:19.117Z,16.89
2023-01-18T08:35:18.320Z,17.02
2023-01-18T08:40:22.572Z,17.15
2023-01-18T08:45:25.891Z,17.23
2023-01-18T08:50:25.206Z,17.28
2023-01-18T08:55:44.951Z,17.39
2023-01-18T09:00:44.206Z,17.51
2023-01-18T09:05:53.116Z,17.68
2023-01-18T09:10:55.734Z,17.81
2023-01-18T09:16:00.265Z,17.82
2023-01-18T09:21:07.178Z,17.96
2023-01-18T09:26:08.885Z,18.01
2023-01-18T09:31:17.475Z,17.92
2023-01-18T09:36:17.475Z,17.98
2023-01-18T09:41:30.204Z,17.97
2023-01-18T09:46:29.027Z,17.89
2023-01-18T09:51:35.988Z,17.99
2023-01-18T09:56:43.560Z,18.03
2023-01-18T10:01:42.978Z,18.01
2023-01-18T10:06:49.356Z,18.15
2023-01-18T10:11:56.415Z,18.30
2023-01-18T10:16:58.145Z,18.45
2023-01-18T10:22:04.495Z,18.70
2023-01-18T10:27:24.772Z,18.80
2023-01-18T10:32:27.674Z,18.79
2023-01-18T10:37:33.558Z,18.83
2023-01-18T10:42:42.044Z,18.73
2023-01-18T10:47:40.895Z,18.80
2023-01-18T10:52:40.318Z,18.76
2023-01-18T10:57:50.612Z,18.86
2023-01-18T11:02:50.679Z,19.04
2023-01-18T11:08:10.752Z,19.35
2023-01-18T11:13:28.366Z,19.61
2023-01-18T11:18:27.234Z,20.07
2023-01-18T11:23:36.872Z,20.42
2023-01-18T11:28:40.767Z,20.69
2023-01-18T11:33:49.412Z,21.07
2023-01-18T11:38:54.957Z,21.16
2023-01-18T11:44:05.132Z,21.37
2023-01-18T11:49:19.005Z,21.68
2023-01-18T11:54:28.606Z,21.92
2023-01-18T11:59:56.635Z,22.19
2023-01-18T12:05:31.283Z,22.06
2023-01-18T12:10:50.831Z,22.37
2023-01-18T12:16:10.679Z,22.64
2023-01-18T12:21:13.270Z,22.66
2023-01-18T12:26:36.728Z,22.75
2023-01-18T12:31:52.497Z,22.67
2023-01-18T12:37:13.559Z,22.81
2023-01-18T12:42:17.268Z,22.54
2023-01-18T12:47:32.906Z,22.76
2023-01-18T12:52:36.942Z,23.00
2023-01-18T12:57:36.968Z,23.10
2023-01-18T13:02:41.980Z,23.18
2023-01-18T13:07:46.909Z,23.12
2023-01-18T13:12:46.123Z,23.32
2023-01-18T13:17:54.830Z,23.37
2023-01-18T13:23:17.664Z,22.96
2023-01-18T13:28:19.954Z,22.86
2023-01-18T13:33:24.181Z,22.91
2023-01-18T13:38:40.826Z,22.68
2023-01-18T13:44:26.963Z,22.42
2023-01-18T13:49:38.014Z,22.09
2023-01-18T13:55:01.885Z,21.93
2023-01-18T14:00:02.513Z,21.46
2023-01-18T14:05:10.141Z,21.34
2023-01-18T14:10:25.187Z,20.92
2023-01-18T14:15:30.790Z,20.76
2023-01-18T14:21:12.657Z,20.32
2023-01-18T14:26:12.746Z,20.10
2023-01-18T14:31:17.904Z,19.97
2023-01-18T14:36:25.822Z,19.57
2023-01-18T14:41:24.719Z,19.59
2023-01-18T14:46:27.600Z,19.52
2023-01-18T14:51:29.308Z,19.31
2023-01-18T14:56:29.670Z,19.11
2023-01-18T15:01:32.311Z,19.04
2023-01-18T15:06:41.058Z,18.95
2023-01-18T15:11:44.459Z,18.90
2023-01-18T15:16:44.170Z,18.75
2023-01-18T15:21:44.514Z,18.77
2023-01-18T15:26:47.829Z,18.72
2023-01-18T15:31:52.606Z,18.56
2023-01-18T15:36:53.017Z,18.57
2023-01-18T15:41:53.630Z,18.53
2023-01-18T15:46:52.467Z,18.40
2023-01-18T15:51:57.113Z,18.35
2023-01-18T15:56:59.515Z,18.24
2023-01-18T16:02:14.658Z,18.15
2023-01-18T16:07:38.183Z,17.93
2023-01-18T16:12:37.299Z,18.04
2023-01-18T16:17:36.891Z,17.90
2023-01-18T16:22:37.903Z,17.83
2023-01-18T16:27:48.794Z,17.69
2023-01-18T16:32:50.064Z,17.61
2023-01-18T16:37:52.443Z,17.63
2023-01-18T16:42:59.811Z,17.47
2023-01-18T16:47:59.663Z,17.60
2023-01-18T16:53:00.123Z,17.54
2023-01-18T16:57:58.999Z,17.26
2023-01-18T17:02:58.180Z,17.23
2023-01-18T17:07:57.412Z,17.12
2023-01-18T17:12:59.894Z,17.04
2023-01-18T17:17:59.051Z,16.94
2023-01-18T17:22:59.012Z,17.02
2023-01-18T17:28:00.974Z,16.98
2023-01-18T17:33:01.885Z,16.87
2023-01-18T17:38:06.532Z,16.81
2023-01-18T17:43:16.913Z,16.83
2023-01-18T17:48:16.494Z,16.82
2023-01-18T17:53:15.258Z,16.73
2023-01-18T17:58:15.528Z,16.76
2023-01-18T18:03:14.451Z,16.74
2023-01-18T18:08:13.258Z,16.61
2023-01-18T18:13:12.111Z,16.65
2023-01-18T18:18:22.589Z,16.66
2023-01-18T18:23:21.961Z,16.61
2023-01-18T18:28:21.507Z,16.63
2023-01-18T18:33:22.077Z,16.72
2023-01-18T18:38:26.651Z,16.63
2023-01-18T18:43:25.445Z,16.55
2023-01-18T18:48:25.795Z,16.63
2023-01-18T18:53:36.953Z,16.48
2023-01-18T18:58:37.732Z,16.47
2023-01-18T19:03:37.904Z,16.50
2023-01-18T19:08:36.766Z,16.58
2023-01-18T19:13:35.759Z,16.56
2023-01-18T19:18:34.776Z,16.54
2023-01-18T19:23:35.023Z,16.36
2023-01-18T19:28:33.825Z,16.40
2023-01-18T19:33:35.143Z,16.38
2023-01-18T19:38:38.734Z,16.28
2023-01-18T19:43:44.618Z,16.24
2023-01-18T19:48:43.740Z,16.22
2023-01-18T19:53:44.143Z,16.14
2023-01-18T19:58:42.894Z,16.19
2023-01-18T20:03:41.743Z,16.19
2023-01-18T20:08:40.803Z,16.07
2023-01-18T20:13:44.195Z,16.02
2023-01-18T20:18:42.919Z,16.12
2023-01-18T20:23:42.930Z,16.08
2023-01-18T20:28:43.105Z,16.18
2023-01-18T20:33:42.824Z,15.98
2023-01-18T20:38:42.526Z,15.85
2023-01-18T20:43:42.988Z,15.82
2023-01-18T20:48:42.008Z,15.75
2023-01-18T20:53:41.429Z,15.84
2023-01-18T20:58:42.575Z,15.69
2023-01-18T21:03:45.356Z,15.71
2023-01-18T21:08:44.090Z,15.70
2023-01-18T21:13:44.303Z,15.75
2023-01-18T21:18:43.247Z,15.80
2023-01-18T21:23:45.646Z,15.88
2023-01-18T21:28:55.680Z,15.75
2023-01-18T21:34:00.743Z,15.81
2023-01-18T21:38:59.458Z,15.84
2023-01-18T21:44:16.870Z,15.78
2023-01-18T21:49:43.020Z,15.81
2023-01-18T21:54:46.149Z,15.72
2023-01-18T21:59:46.625Z,15.74
2023-01-18T22:05:01.107Z,15.79
2023-01-18T22:10:05.741Z,15.65
2023-01-18T22:15:07.893Z,15.64
2023-01-18T22:20:08.819Z,15.68
2023-01-18T22:25:09.161Z,15.67
2023-01-18T22:30:10.831Z,15.63
2023-01-18T22:35:10.205Z,15.59
2023-01-18T22:40:11.648Z,15.59
2023-01-18T22:45:12.487Z,15.62
2023-01-18T22:50:12.641Z,15.60
2023-01-18T22:55:11.420Z,15.54
2023-01-18T23:00:13.341Z,15.53
2023-01-18T23:05:12.394Z,15.52
2023-01-18T23:10:11.601Z,15.49
2023-01-18T23:15:31.259Z,15.61
2023-01-18T23:20:30.430Z,15.51
2023-01-18T23:25:29.555Z,15.57
2023-01-18T23:30:29.700Z,15.59
2023-01-18T23:35:28.437Z,15.57
2023-01-18T23:40:44.461Z,15.53
2023-01-18T23:46:03.341Z,15.52
2023-01-18T23:51:20.330Z,15.54
2023-01-18T23:56:19.089Z,15.45
